Time;durP1;ratioP1;P1;durP2;ratioP2;P2;SDS_P1;SDS_P2;PMS_P1;PMS_P2;Temp;Humidity;BMP_temperature;BMP_pressure;BME280_temperature;BME280_humidity;BME280_pressure;Samples;Min_cycle;Max_cycle;Signal;HPM_P1;HPM_P2
2023/07/04 00:07:07;;;;;;;;;;;28.60;32.40;;;;;;21259780;27;19992;-59
2023/07/04 00:17:07;;;;;;;;;;;28.60;32.70;;;;;;21258887;27;19923;-57
2023/07/04 00:27:08;;;;;;;;;;;28.60;34.80;;;;;;21257701;27;19923;-58
2023/07/04 00:37:09;;;;;;;;;;;28.50;41.90;;;;;;21257658;27;20010;-56
2023/07/04 00:47:15;;;;;;;;;;;28.30;43.00;;;;;;21255436;27;19980;-57
2023/07/04 00:57:17;;;;;;;;;;;28.20;44.70;;;;;;21256644;27;19924;-58
2023/07/04 01:07:36;;;;;;;;;;;27.80;45.60;;;;;;21255094;27;19924;-57
2023/07/04 01:17:38;;;;;;;;;;;27.60;42.80;;;;;;21254335;27;20010;-57
2023/07/04 01:27:41;;;;;;;;;;;27.50;43.40;;;;;;21252699;27;19923;-57
2023/07/04 01:37:41;;;;;;;;;;;27.20;46.40;;;;;;21252998;27;19972;-57
2023/07/04 01:47:42;;;;;;;;;;;26.90;48.80;;;;;;21250950;27;19959;-57
2023/07/04 01:57:43;;;;;;;;;;;26.70;49.50;;;;;;21250426;27;19931;-57
2023/07/04 02:07:43;;;;;;;;;;;26.70;50.00;;;;;;21250466;27;20014;-57
2023/07/04 02:17:44;;;;;;;;;;;26.40;50.60;;;;;;21250316;27;20013;-57
2023/07/04 02:27:45;;;;;;;;;;;26.30;51.00;;;;;;21251060;27;20218;-57
2023/07/04 02:37:45;;;;;;;;;;;26.10;52.30;;;;;;21249177;27;19924;-58
2023/07/04 02:47:47;;;;;;;;;;;26.00;52.80;;;;;;21248730;28;19924;-57
2023/07/04 02:57:47;;;;;;;;;;;25.80;53.20;;;;;;21248524;28;19973;-56
2023/07/04 03:07:48;;;;;;;;;;;25.70;53.50;;;;;;21250445;27;19925;-57
2023/07/04 03:17:49;;;;;;;;;;;25.60;54.30;;;;;;21264134;27;20429;-57
2023/07/04 03:27:49;;;;;;;;;;;25.40;54.80;;;;;;21262345;27;19976;-57
2023/07/04 03:37:50;;;;;;;;;;;25.40;55.20;;;;;;21262765;27;19923;-57
2023/07/04 03:47:51;;;;;;;;;;;25.20;55.80;;;;;;21262182;27;19974;-57
2023/07/04 03:57:51;;;;;;;;;;;25.10;56.10;;;;;;21261276;27;19927;-57
2023/07/04 04:07:52;;;;;;;;;;;25.10;56.20;;;;;;21260277;27;19971;-57
2023/07/04 04:17:53;;;;;;;;;;;25.10;56.10;;;;;;21258303;27;19930;-57
2023/07/04 04:27:54;;;;;;;;;;;25.10;56.20;;;;;;21258842;27;19924;-57
2023/07/04 04:37:55;;;;;;;;;;;25.10;56.50;;;;;;21258009;27;19974;-57
2023/07/04 04:47:56;;;;;;;;;;;25.00;56.60;;;;;;21257365;27;20449;-57
2023/07/04 04:57:56;;;;;;;;;;;24.90;56.90;;;;;;21255670;27;19923;-57
2023/07/04 05:07:57;;;;;;;;;;;24.80;57.20;;;;;;21255039;27;19974;-57
2023/07/04 05:17:58;;;;;;;;;;;24.90;57.30;;;;;;21254155;27;20010;-59
2023/07/04 05:27:58;;;;;;;;;;;24.70;56.50;;;;;;21253995;27;20288;-59
2023/07/04 05:37:59;;;;;;;;;;;24.60;56.20;;;;;;21250355;27;19924;-58
2023/07/04 05:47:59;;;;;;;;;;;24.50;56.70;;;;;;21251851;27;19924;-59
2023/07/04 05:58:00;;;;;;;;;;;24.50;57.00;;;;;;21251018;27;20018;-59
2023/07/04 06:08:01;;;;;;;;;;;24.60;57.10;;;;;;21248946;27;20399;-59
2023/07/04 06:18:01;;;;;;;;;;;24.70;57.10;;;;;;21248342;27;20415;-59
2023/07/04 06:28:02;;;;;;;;;;;24.90;57.50;;;;;;21248379;27;20006;-59
2023/07/04 06:38:02;;;;;;;;;;;24.90;57.70;;;;;;21248459;27;19923;-58
2023/07/04 06:48:03;;;;;;;;;;;25.10;57.40;;;;;;21247328;27;19923;-58
2023/07/04 06:58:04;;;;;;;;;;;25.30;56.80;;;;;;21248027;28;19924;-58
2023/07/04 07:08:05;;;;;;;;;;;25.70;55.70;;;;;;21247281;28;19923;-58
2023/07/04 07:18:05;;;;;;;;;;;26.60;53.50;;;;;;21247240;28;20281;-58
2023/07/04 07:28:06;;;;;;;;;;;27.30;51.40;;;;;;21247465;28;19923;-60
2023/07/04 07:38:06;;;;;;;;;;;27.90;49.30;;;;;;21246214;28;19923;-58
2023/07/04 07:48:07;;;;;;;;;;;28.60;46.90;;;;;;21245797;28;19938;-60
2023/07/04 07:58:08;;;;;;;;;;;28.70;45.60;;;;;;21252972;27;19923;-59
2023/07/04 08:08:09;;;;;;;;;;;28.90;41.10;;;;;;21259994;27;19968;-59
2023/07/04 08:18:10;;;;;;;;;;;29.30;42.20;;;;;;21258504;27;19923;-59
2023/07/04 08:28:10;;;;;;;;;;;29.40;40.90;;;;;;21256257;27;19923;-60
2023/07/04 08:38:11;;;;;;;;;;;29.50;41.00;;;;;;21256364;27;19991;-59
2023/07/04 08:48:16;;;;;;;;;;;29.80;40.50;;;;;;21257366;27;19931;-59
2023/07/04 08:58:19;;;;;;;;;;;30.00;39.80;;;;;;21256804;27;19965;-58
2023/07/04 09:08:31;;;;;;;;;;;30.40;37.70;;;;;;21255542;27;19973;-58
2023/07/04 09:18:35;;;;;;;;;;;30.60;37.10;;;;;;21255265;27;20110;-60
2023/07/04 09:28:38;;;;;;;;;;;30.60;36.70;;;;;;21253293;27;20471;-59
2023/07/04 09:38:55;;;;;;;;;;;30.90;36.50;;;;;;21253360;27;19930;-57
2023/07/04 09:49:15;;;;;;;;;;;31.10;35.60;;;;;;21252427;27;19931;-59
2023/07/04 09:59:16;;;;;;;;;;;31.20;35.40;;;;;;21251849;27;19924;-57
2023/07/04 10:09:19;;;;;;;;;;;31.30;35.20;;;;;;21249532;27;20299;-60
2023/07/04 10:19:21;;;;;;;;;;;31.60;30.80;;;;;;21249510;27;19923;-59
2023/07/04 10:29:29;;;;;;;;;;;31.80;30.60;;;;;;21251129;27;19967;-59
2023/07/04 10:39:31;;;;;;;;;;;32.10;29.50;;;;;;21249299;27;19947;-60
2023/07/04 10:49:36;;;;;;;;;;;32.40;28.50;;;;;;21248036;28;19927;-63
2023/07/04 10:59:38;;;;;;;;;;;32.20;29.20;;;;;;21247421;28;19958;-62
2023/07/04 11:09:40;;;;;;;;;;;32.10;28.60;;;;;;21245957;28;20373;-60
2023/07/04 11:19:55;;;;;;;;;;;32.20;28.70;;;;;;21247003;28;19931;-61
2023/07/04 11:29:57;;;;;;;;;;;32.70;27.90;;;;;;21250502;27;19925;-59
2023/07/04 11:40:01;;;;;;;;;;;33.00;27.00;;;;;;21262884;27;19930;-60
2023/07/04 11:50:05;;;;;;;;;;;32.90;26.70;;;;;;21261106;27;19978;-58
2023/07/04 12:00:20;;;;;;;;;;;32.70;26.90;;;;;;21261173;27;20348;-60
2023/07/04 12:10:21;;;;;;;;;;;32.90;26.30;;;;;;21260441;27;20387;-60
2023/07/04 12:20:22;;;;;;;;;;;32.80;24.30;;;;;;21259378;27;19927;-59
2023/07/04 12:30:23;;;;;;;;;;;32.90;25.40;;;;;;21257089;27;20014;-60
2023/07/04 12:40:25;;;;;;;;;;;33.10;26.60;;;;;;21256522;27;20019;-59
2023/07/04 12:50:27;;;;;;;;;;;33.60;21.90;;;;;;21257934;27;19930;-60
2023/07/04 13:00:29;;;;;;;;;;;33.60;21.50;;;;;;21256583;27;19923;-60
2023/07/04 13:10:32;;;;;;;;;;;33.50;20.60;;;;;;21254483;27;19923;-60
2023/07/04 13:20:34;;;;;;;;;;;33.60;19.90;;;;;;21253861;27;19927;-60
2023/07/04 13:30:35;;;;;;;;;;;33.90;18.80;;;;;;21255423;27;19976;-59
2023/07/04 13:40:36;;;;;;;;;;;33.80;17.90;;;;;;21253348;27;19923;-60
2023/07/04 13:50:36;;;;;;;;;;;34.00;16.70;;;;;;21252614;27;19927;-60
2023/07/04 14:00:37;;;;;;;;;;;33.60;16.30;;;;;;21249570;27;19923;-59
2023/07/04 14:10:38;;;;;;;;;;;33.60;16.00;;;;;;21250153;27;20463;-59
2023/07/04 14:20:39;;;;;;;;;;;33.50;15.10;;;;;;21249493;27;19923;-61
2023/07/04 14:30:40;;;;;;;;;;;33.50;15.70;;;;;;21248858;27;20391;-59
2023/07/04 14:40:41;;;;;;;;;;;33.50;16.40;;;;;;21249250;27;19924;-60
2023/07/04 14:50:42;;;;;;;;;;;33.50;17.00;;;;;;21247657;27;19928;-62
2023/07/04 15:00:42;;;;;;;;;;;33.60;17.60;;;;;;21248959;28;20399;-60
2023/07/04 15:10:44;;;;;;;;;;;33.60;17.70;;;;;;21262861;27;20394;-60
2023/07/04 15:20:45;;;;;;;;;;;33.60;18.00;;;;;;21264822;27;19992;-61
2023/07/04 15:30:47;;;;;;;;;;;33.60;18.20;;;;;;21262922;27;19924;-60
2023/07/04 15:40:49;;;;;;;;;;;33.70;18.10;;;;;;21263665;27;19923;-60
2023/07/04 15:50:55;;;;;;;;;;;33.40;18.80;;;;;;21262497;27;19930;-59
2023/07/04 16:00:56;;;;;;;;;;;33.40;19.80;;;;;;21261884;27;19928;-62
2023/07/04 16:10:58;;;;;;;;;;;33.10;20.50;;;;;;21260526;27;19976;-61
2023/07/04 16:20:58;;;;;;;;;;;33.30;19.60;;;;;;21259479;27;20369;-59
2023/07/04 16:31:04;;;;;;;;;;;33.20;20.20;;;;;;21260006;27;19946;-61
2023/07/04 16:41:12;;;;;;;;;;;33.10;21.70;;;;;;21258304;27;19967;-60
2023/07/04 16:51:13;;;;;;;;;;;33.20;20.40;;;;;;21257863;27;20360;-61
2023/07/04 17:01:13;;;;;;;;;;;33.30;20.00;;;;;;21257168;27;19923;-60
2023/07/04 17:11:15;;;;;;;;;;;33.20;19.10;;;;;;21255894;27;19923;-59
2023/07/04 17:21:15;;;;;;;;;;;33.40;19.20;;;;;;21247794;27;20372;-59
2023/07/04 17:31:16;;;;;;;;;;;33.10;20.70;;;;;;21252468;27;19923;-58
2023/07/04 17:41:16;;;;;;;;;;;32.90;18.60;;;;;;21252486;27;19923;-56
2023/07/04 17:51:19;;;;;;;;;;;33.10;18.20;;;;;;21252619;27;20440;-56
2023/07/04 18:01:22;;;;;;;;;;;32.90;18.20;;;;;;21251468;27;20347;-57
2023/07/04 18:11:24;;;;;;;;;;;32.80;18.70;;;;;;21251312;27;19923;-57
2023/07/04 18:21:25;;;;;;;;;;;32.70;18.50;;;;;;21251118;27;19930;-56
2023/07/04 18:31:27;;;;;;;;;;;32.60;18.70;;;;;;21248879;27;19923;-55
2023/07/04 18:41:31;;;;;;;;;;;32.60;19.30;;;;;;21248909;27;19930;-57
2023/07/04 18:51:34;;;;;;;;;;;32.30;19.20;;;;;;21249101;27;19931;-56
2023/07/04 19:01:34;;;;;;;;;;;32.20;18.90;;;;;;21248811;28;20300;-58
2023/07/04 19:11:36;;;;;;;;;;;32.00;19.10;;;;;;21248512;28;19924;-57
2023/07/04 19:21:38;;;;;;;;;;;31.80;19.40;;;;;;21248002;28;19930;-57
2023/07/04 19:31:39;;;;;;;;;;;31.60;19.40;;;;;;21244774;28;19923;-56
2023/07/04 19:41:40;;;;;;;;;;;31.40;19.60;;;;;;21246723;28;20022;-56
2023/07/04 19:51:41;;;;;;;;;;;31.10;20.00;;;;;;21251134;27;20408;-57
2023/07/04 20:01:41;;;;;;;;;;;31.00;20.00;;;;;;21261112;27;19976;-56
2023/07/04 20:11:42;;;;;;;;;;;30.90;20.50;;;;;;21260204;27;19924;-55
2023/07/04 20:21:42;;;;;;;;;;;30.60;20.70;;;;;;21257613;27;19927;-56
2023/07/04 20:31:43;;;;;;;;;;;30.40;21.30;;;;;;21258943;27;20444;-56
2023/07/04 20:41:44;;;;;;;;;;;30.20;21.60;;;;;;21258079;27;19924;-58
2023/07/04 20:51:46;;;;;;;;;;;30.10;22.00;;;;;;21257242;27;20010;-56
2023/07/04 21:01:47;;;;;;;;;;;29.90;22.30;;;;;;21256167;27;20006;-56
2023/07/04 21:11:47;;;;;;;;;;;29.80;22.50;;;;;;21254263;27;19981;-56
2023/07/04 21:21:48;;;;;;;;;;;29.60;22.70;;;;;;21255109;27;20444;-56
2023/07/04 21:31:49;;;;;;;;;;;29.50;22.80;;;;;;21252822;27;19930;-55
2023/07/04 21:41:49;;;;;;;;;;;29.40;22.70;;;;;;21252981;27;19924;-57
2023/07/04 21:51:50;;;;;;;;;;;29.10;22.80;;;;;;21253624;27;20032;-56
2023/07/04 22:01:50;;;;;;;;;;;29.00;22.90;;;;;;21252152;27;19924;-56
2023/07/04 22:11:51;;;;;;;;;;;28.80;23.00;;;;;;21249719;27;19923;-58
2023/07/04 22:21:51;;;;;;;;;;;28.70;23.30;;;;;;21250214;27;19923;-57
2023/07/04 22:31:52;;;;;;;;;;;28.50;23.50;;;;;;21250051;27;20288;-56
2023/07/04 22:41:53;;;;;;;;;;;28.30;23.90;;;;;;21248313;27;19934;-56
2023/07/04 22:51:53;;;;;;;;;;;28.10;24.20;;;;;;21248149;28;20307;-56
2023/07/04 23:01:54;;;;;;;;;;;28.10;24.50;;;;;;21248932;28;20287;-56
2023/07/04 23:11:54;;;;;;;;;;;27.90;25.20;;;;;;21248446;28;20380;-55
2023/07/04 23:21:55;;;;;;;;;;;27.80;25.40;;;;;;21247926;28;20000;-56
2023/07/04 23:31:56;;;;;;;;;;;27.70;25.70;;;;;;21262197;27;19969;-56
2023/07/04 23:41:57;;;;;;;;;;;27.60;25.80;;;;;;21262423;27;19948;-56
2023/07/04 23:51:57;;;;;;;;;;;27.20;26.60;;;;;;21261672;27;20333;-56
